createdAt,value
2016-10-31T00:00:31.913Z,964.53
2016-10-31T00:01:31.932Z,964.57
2016-10-31T00:02:31.950Z,964.53
2016-10-31T00:03:31.969Z,964.53
2016-10-31T00:04:31.988Z,964.55
2016-10-31T00:05:32.007Z,964.54
2016-10-31T00:06:32.027Z,964.55
2016-10-31T00:07:32.044Z,964.52
2016-10-31T00:08:32.064Z,964.53
2016-10-31T00:09:32.083Z,964.51
2016-10-31T00:10:32.102Z,964.55
2016-10-31T00:11:32.120Z,964.48
2016-10-31T00:12:32.139Z,964.55
2016-10-31T00:13:32.179Z,964.48
2016-10-31T00:14:32.178Z,964.51
2016-10-31T00:15:32.197Z,964.5
2016-10-31T00:16:32.217Z,964.53
2016-10-31T00:17:32.235Z,964.5
2016-10-31T00:18:32.254Z,964.5
2016-10-31T00:19:32.272Z,964.52
2016-10-31T00:20:32.292Z,964.5
2016-10-31T00:21:32.514Z,964.53
2016-10-31T00:22:32.329Z,964.44
2016-10-31T00:23:32.348Z,964.48
2016-10-31T00:24:32.369Z,964.44
2016-10-31T00:25:32.386Z,964.47
2016-10-31T00:26:32.404Z,964.48
2016-10-31T00:27:32.424Z,964.43
2016-10-31T00:28:32.459Z,964.48
2016-10-31T00:29:32.462Z,964.48
2016-10-31T00:30:32.481Z,964.45
2016-10-31T00:31:32.502Z,964.46
2016-10-31T00:32:32.519Z,964.47
2016-10-31T00:33:32.538Z,964.47
2016-10-31T00:34:32.556Z,964.45
2016-10-31T00:35:32.576Z,964.42
2016-10-31T00:36:32.617Z,964.42
2016-10-31T00:37:32.612Z,964.44
2016-10-31T00:38:32.632Z,964.44
2016-10-31T00:39:32.651Z,964.46
2016-10-31T00:40:32.670Z,964.44
2016-10-31T00:41:32.689Z,964.46
2016-10-31T00:42:32.707Z,964.44
2016-10-31T00:43:32.741Z,964.47
2016-10-31T00:44:32.745Z,964.43
2016-10-31T00:45:32.764Z,964.42
2016-10-31T00:46:32.784Z,964.4
2016-10-31T00:47:32.802Z,964.38
2016-10-31T00:48:32.821Z,964.48
2016-10-31T00:49:32.839Z,964.44
2016-10-31T00:50:32.859Z,964.39
2016-10-31T00:51:32.898Z,964.38
2016-10-31T00:52:32.896Z,964.35
2016-10-31T00:53:32.916Z,964.32
2016-10-31T00:54:32.935Z,964.36
2016-10-31T00:55:32.952Z,964.33
2016-10-31T00:56:32.971Z,964.34
2016-10-31T00:57:32.991Z,964.34
2016-10-31T00:58:33.022Z,964.3
2016-10-31T00:59:33.029Z,964.34
2016-10-31T01:00:33.047Z,964.28
2016-10-31T01:01:33.068Z,964.29
2016-10-31T01:02:33.085Z,964.27
2016-10-31T01:03:33.105Z,964.27
2016-10-31T01:04:33.123Z,964.32
2016-10-31T01:05:33.142Z,964.32
2016-10-31T01:06:33.179Z,964.3
2016-10-31T01:07:33.180Z,964.34
2016-10-31T01:08:33.199Z,964.35
2016-10-31T01:09:33.216Z,964.34
2016-10-31T01:10:33.236Z,964.38
2016-10-31T01:11:33.255Z,964.36
2016-10-31T01:12:33.274Z,964.39
2016-10-31T01:13:33.303Z,964.36
2016-10-31T01:14:33.312Z,964.38
2016-10-31T01:15:33.329Z,964.36
2016-10-31T01:16:33.351Z,964.35
2016-10-31T01:17:33.368Z,964.34
2016-10-31T01:18:33.387Z,964.32
2016-10-31T01:19:33.406Z,964.39
2016-10-31T01:20:33.424Z,964.33
2016-10-31T01:21:33.460Z,964.31
2016-10-31T01:22:33.462Z,964.32
2016-10-31T01:23:33.483Z,964.34
2016-10-31T01:24:33.499Z,964.37
2016-10-31T01:25:33.520Z,964.34
2016-10-31T01:26:33.538Z,964.32
2016-10-31T01:27:33.557Z,964.28
2016-10-31T01:28:33.584Z,964.29
2016-10-31T01:29:33.594Z,964.27
2016-10-31T01:30:33.612Z,964.29
2016-10-31T01:31:33.631Z,964.25
2016-10-31T01:32:33.650Z,964.25
2016-10-31T01:33:33.669Z,964.24
2016-10-31T01:34:33.688Z,964.25
2016-10-31T01:35:33.707Z,964.24
2016-10-31T01:36:33.741Z,964.25
2016-10-31T01:37:33.744Z,964.26
2016-10-31T01:38:33.763Z,964.25
2016-10-31T01:39:33.781Z,964.23
2016-10-31T01:40:33.800Z,964.2
2016-10-31T01:41:33.818Z,964.18
2016-10-31T01:42:33.839Z,964.2
2016-10-31T01:43:33.865Z,964.16
2016-10-31T01:44:33.876Z,964.15
2016-10-31T01:45:33.895Z,964.23
2016-10-31T01:46:33.912Z,964.17
2016-10-31T01:47:33.932Z,964.18
2016-10-31T01:48:33.952Z,964.23
2016-10-31T01:49:33.970Z,964.17
2016-10-31T01:50:33.989Z,964.18
2016-10-31T01:51:34.020Z,964.17
2016-10-31T01:52:34.027Z,964.16
2016-10-31T01:53:34.045Z,964.17
2016-10-31T01:54:34.063Z,964.17
2016-10-31T01:55:34.084Z,964.15
2016-10-31T01:56:34.102Z,964.15
2016-10-31T01:57:34.121Z,964.15
2016-10-31T01:58:34.142Z,964.1
2016-10-31T01:59:34.159Z,964.12
2016-10-31T02:00:34.177Z,964.1
2016-10-31T02:01:34.196Z,964.1
2016-10-31T02:02:34.215Z,964.08
2016-10-31T02:03:34.235Z,964.06
2016-10-31T02:04:34.253Z,964.02
2016-10-31T02:05:34.272Z,964.03
2016-10-31T02:06:34.299Z,964
2016-10-31T02:07:34.310Z,964
2016-10-31T02:08:34.327Z,963.96
2016-10-31T02:09:34.350Z,963.98
2016-10-31T02:10:34.366Z,963.99
2016-10-31T02:11:34.384Z,963.97
2016-10-31T02:12:34.403Z,963.97
2016-10-31T02:13:34.423Z,964.01
2016-10-31T02:14:34.442Z,963.95
2016-10-31T02:15:34.461Z,963.98
2016-10-31T02:16:34.478Z,964.01
2016-10-31T02:17:34.497Z,964
2016-10-31T02:18:34.517Z,964.03
2016-10-31T02:19:34.535Z,964
2016-10-31T02:20:34.554Z,964.03
2016-10-31T02:21:34.580Z,964.05
2016-10-31T02:22:34.590Z,964
2016-10-31T02:23:34.610Z,964.06
2016-10-31T02:24:34.630Z,964.02
2016-10-31T02:25:34.649Z,964.03
2016-10-31T02:26:34.667Z,964.05
2016-10-31T02:27:34.686Z,964.05
2016-10-31T02:28:34.705Z,964
2016-10-31T02:29:34.725Z,964
2016-10-31T02:30:34.743Z,964.02
2016-10-31T02:31:34.762Z,964
2016-10-31T02:32:34.782Z,964
2016-10-31T02:33:34.801Z,963.97
2016-10-31T02:34:34.820Z,964.02
2016-10-31T02:35:34.839Z,964.05
2016-10-31T02:36:34.862Z,964.05
2016-10-31T02:37:34.877Z,964.05
2016-10-31T02:38:34.896Z,964.05
2016-10-31T02:39:34.914Z,964.04
2016-10-31T02:40:34.935Z,964.05
2016-10-31T02:41:34.953Z,964.02
2016-10-31T02:42:34.972Z,963.98
2016-10-31T02:43:34.995Z,963.97
2016-10-31T02:44:35.011Z,963.97
2016-10-31T02:45:35.029Z,963.97
2016-10-31T02:46:35.049Z,963.98
2016-10-31T02:47:35.068Z,963.96
2016-10-31T02:48:35.086Z,963.98
2016-10-31T02:49:35.106Z,963.97
2016-10-31T02:50:35.125Z,963.96
2016-10-31T02:51:35.146Z,964
2016-10-31T02:52:35.163Z,963.96
2016-10-31T02:53:35.182Z,964
2016-10-31T02:54:35.202Z,963.99
2016-10-31T02:55:35.220Z,963.99
2016-10-31T02:56:35.239Z,963.96
2016-10-31T02:57:35.257Z,963.97
2016-10-31T02:58:35.281Z,963.95
2016-10-31T02:59:35.296Z,963.98
2016-10-31T03:00:35.315Z,963.98
2016-10-31T03:01:35.335Z,963.93
2016-10-31T03:02:35.354Z,963.96
2016-10-31T03:03:35.373Z,963.95
2016-10-31T03:04:35.392Z,963.97
2016-10-31T03:05:35.412Z,963.93
2016-10-31T03:06:35.430Z,963.93
2016-10-31T03:07:35.449Z,963.93
2016-10-31T03:08:35.468Z,963.99
2016-10-31T03:09:35.487Z,964.01
2016-10-31T03:10:35.506Z,963.97
2016-10-31T03:11:35.527Z,963.99
2016-10-31T03:12:35.545Z,963.96
2016-10-31T03:13:35.564Z,963.95
2016-10-31T03:14:35.582Z,963.93
2016-10-31T03:15:35.602Z,963.92
2016-10-31T03:16:35.622Z,963.9
2016-10-31T03:17:35.640Z,963.92
2016-10-31T03:18:35.658Z,963.94
2016-10-31T03:19:35.677Z,963.9
2016-10-31T03:20:35.697Z,963.94
2016-10-31T03:21:35.724Z,963.9
2016-10-31T03:22:35.734Z,963.91
2016-10-31T03:23:35.754Z,963.88
2016-10-31T03:24:35.773Z,963.88
2016-10-31T03:25:35.792Z,963.9
2016-10-31T03:26:35.812Z,963.86
2016-10-31T03:27:35.831Z,963.92
2016-10-31T03:28:35.849Z,963.91
2016-10-31T03:29:35.870Z,963.93
2016-10-31T03:30:35.887Z,963.91
2016-10-31T03:31:35.908Z,963.9
2016-10-31T03:32:35.926Z,963.92
2016-10-31T03:33:35.945Z,963.9
2016-10-31T03:34:35.965Z,963.87
2016-10-31T03:35:35.983Z,963.89
2016-10-31T03:36:36.006Z,963.91
2016-10-31T03:37:36.022Z,963.91
2016-10-31T03:38:36.041Z,963.93
2016-10-31T03:39:36.058Z,963.89
2016-10-31T03:40:36.078Z,963.91
2016-10-31T03:41:36.097Z,963.9
2016-10-31T03:42:36.117Z,963.9
2016-10-31T03:43:36.136Z,963.89
2016-10-31T03:44:36.153Z,963.89
2016-10-31T03:45:36.173Z,963.91
2016-10-31T03:46:36.191Z,963.86
2016-10-31T03:47:36.211Z,963.9
2016-10-31T03:48:36.230Z,963.86
2016-10-31T03:49:36.249Z,963.85
2016-10-31T03:50:36.268Z,963.82
2016-10-31T03:51:36.288Z,963.85
2016-10-31T03:52:36.307Z,963.86
2016-10-31T03:53:36.325Z,963.87
2016-10-31T03:54:36.344Z,963.87
2016-10-31T03:55:36.365Z,963.88
2016-10-31T03:56:36.384Z,963.9
2016-10-31T03:57:36.401Z,963.85
2016-10-31T03:58:36.420Z,963.89
2016-10-31T03:59:36.439Z,963.87
2016-10-31T04:00:36.459Z,963.89
2016-10-31T04:01:36.477Z,963.88
2016-10-31T04:02:36.497Z,963.89
2016-10-31T04:03:36.515Z,963.88
2016-10-31T04:04:36.535Z,963.9
2016-10-31T04:05:36.553Z,963.9
2016-10-31T04:06:36.573Z,963.9
2016-10-31T04:07:36.591Z,963.89
2016-10-31T04:08:36.609Z,963.87
2016-10-31T04:09:36.629Z,963.88
2016-10-31T04:10:36.648Z,963.86
2016-10-31T04:11:36.668Z,963.82
2016-10-31T04:12:36.686Z,963.83
2016-10-31T04:13:36.704Z,963.81
2016-10-31T04:14:36.724Z,963.82
2016-10-31T04:15:36.743Z,963.8
2016-10-31T04:16:36.760Z,963.81
2016-10-31T04:17:36.780Z,963.78
2016-10-31T04:18:36.800Z,963.77
2016-10-31T04:19:36.818Z,963.79
2016-10-31T04:20:36.837Z,963.75
2016-10-31T04:21:36.858Z,963.81
2016-10-31T04:22:36.875Z,963.75
2016-10-31T04:23:36.894Z,963.82
2016-10-31T04:24:36.913Z,963.81
2016-10-31T04:25:36.932Z,963.78
2016-10-31T04:26:36.951Z,963.79
2016-10-31T04:27:36.969Z,963.8
2016-10-31T04:28:36.989Z,963.8
2016-10-31T04:29:37.008Z,963.83
2016-10-31T04:30:37.026Z,963.78
2016-10-31T04:31:37.046Z,963.79
2016-10-31T04:32:37.064Z,963.81
2016-10-31T04:33:37.083Z,963.83
2016-10-31T04:34:37.100Z,963.83
2016-10-31T04:35:37.122Z,963.81
2016-10-31T04:36:37.139Z,963.78
2016-10-31T04:37:37.159Z,963.82
2016-10-31T04:38:37.177Z,963.83
2016-10-31T04:39:37.196Z,963.81
2016-10-31T04:40:37.215Z,963.8
2016-10-31T04:41:37.233Z,963.79
2016-10-31T04:42:37.252Z,963.78
2016-10-31T04:43:37.271Z,963.8
2016-10-31T04:44:37.290Z,963.83
2016-10-31T04:45:37.308Z,963.79
2016-10-31T04:46:37.327Z,963.81
2016-10-31T04:47:37.346Z,963.81
2016-10-31T04:48:37.365Z,963.76
2016-10-31T04:49:37.406Z,963.77
2016-10-31T04:50:37.402Z,963.78
2016-10-31T04:51:37.422Z,963.73
2016-10-31T04:52:37.439Z,963.73
2016-10-31T04:53:37.458Z,963.74
2016-10-31T04:54:37.477Z,963.76
2016-10-31T04:55:37.496Z,963.74
2016-10-31T04:56:37.515Z,963.76
2016-10-31T04:57:37.532Z,963.73
2016-10-31T04:58:37.553Z,963.73
2016-10-31T04:59:37.572Z,963.74
2016-10-31T05:00:37.591Z,963.72
2016-10-31T05:01:37.609Z,963.74
2016-10-31T05:02:37.628Z,963.7
2016-10-31T05:03:37.646Z,963.7
2016-10-31T05:04:37.666Z,963.68
2016-10-31T05:05:37.684Z,963.71
2016-10-31T05:06:37.702Z,963.78
2016-10-31T05:07:37.721Z,963.75
2016-10-31T05:08:37.740Z,963.83
2016-10-31T05:09:37.758Z,963.78
2016-10-31T05:10:37.777Z,963.75
2016-10-31T05:11:37.795Z,963.77
2016-10-31T05:12:37.815Z,963.8
2016-10-31T05:13:37.834Z,963.8
2016-10-31T05:14:37.851Z,963.78
2016-10-31T05:15:37.870Z,963.77
2016-10-31T05:16:37.888Z,963.76
2016-10-31T05:17:37.909Z,963.78
2016-10-31T05:18:37.926Z,963.76
2016-10-31T05:19:37.944Z,963.79
2016-10-31T05:20:37.963Z,963.81
2016-10-31T05:21:37.983Z,963.79
2016-10-31T05:22:38.000Z,963.8
2016-10-31T05:23:38.018Z,963.8
2016-10-31T05:24:38.039Z,963.84
2016-10-31T05:25:38.056Z,963.87
2016-10-31T05:26:38.074Z,963.84
2016-10-31T05:27:38.093Z,963.84
2016-10-31T05:28:38.111Z,963.85
2016-10-31T05:29:38.128Z,963.81
2016-10-31T05:30:38.147Z,963.86
2016-10-31T05:31:38.166Z,963.91
2016-10-31T05:32:38.184Z,963.92
2016-10-31T05:33:38.204Z,963.92
2016-10-31T05:34:38.222Z,963.94
2016-10-31T05:35:38.287Z,963.98
2016-10-31T05:36:38.275Z,963.93
2016-10-31T05:37:38.277Z,963.96
2016-10-31T05:38:38.297Z,963.94
2016-10-31T05:39:38.314Z,963.98
2016-10-31T05:40:38.332Z,963.95
2016-10-31T05:41:38.350Z,963.97
2016-10-31T05:42:38.368Z,963.98
2016-10-31T05:43:38.387Z,964.05
2016-10-31T05:44:38.406Z,964.03
2016-10-31T05:45:38.424Z,964.04
2016-10-31T05:46:38.442Z,964.04
2016-10-31T05:47:38.461Z,964.06
2016-10-31T05:48:38.481Z,964.02
2016-10-31T05:49:38.497Z,964.07
2016-10-31T05:50:38.517Z,964.05
2016-10-31T05:51:38.534Z,964.05
2016-10-31T05:52:38.551Z,964.05
2016-10-31T05:53:38.570Z,964.04
2016-10-31T05:54:38.587Z,964.03
2016-10-31T05:55:38.605Z,964.05
2016-10-31T05:56:38.625Z,964.08
2016-10-31T05:57:38.644Z,964.07
2016-10-31T05:58:38.663Z,964.06
2016-10-31T05:59:38.679Z,964.08
2016-10-31T06:00:38.699Z,964.07
2016-10-31T06:01:38.716Z,964.07
2016-10-31T06:02:38.733Z,964.07
2016-10-31T06:03:38.751Z,964.12
2016-10-31T06:04:38.770Z,964.11
2016-10-31T06:05:38.787Z,964.11
2016-10-31T06:06:38.810Z,964.12
2016-10-31T06:07:38.824Z,964.12
2016-10-31T06:08:38.843Z,964.14
2016-10-31T06:09:38.860Z,964.13
2016-10-31T06:10:38.879Z,964.12
2016-10-31T06:11:38.899Z,964.13
2016-10-31T06:12:38.914Z,964.12
2016-10-31T06:13:38.936Z,964.07
2016-10-31T06:14:38.950Z,964.14
2016-10-31T06:15:38.968Z,964.13
2016-10-31T06:16:38.987Z,964.16
2016-10-31T06:17:39.003Z,964.12
2016-10-31T06:18:39.023Z,964.12
2016-10-31T06:19:39.041Z,964.14
2016-10-31T06:20:39.057Z,964.12
2016-10-31T06:21:39.091Z,964.09
2016-10-31T06:22:39.094Z,964.11
2016-10-31T06:23:39.116Z,964.1
2016-10-31T06:24:39.129Z,964.19
2016-10-31T06:25:39.147Z,964.15
2016-10-31T06:26:39.166Z,964.19
2016-10-31T06:27:39.182Z,964.24
2016-10-31T06:28:39.217Z,964.23
2016-10-31T06:29:39.219Z,964.23
2016-10-31T06:30:39.237Z,964.24
2016-10-31T06:31:39.255Z,964.23
2016-10-31T06:32:39.272Z,964.25
2016-10-31T06:33:39.292Z,964.22
2016-10-31T06:34:39.308Z,964.25
2016-10-31T06:35:39.325Z,964.25
2016-10-31T06:36:39.344Z,964.29
2016-10-31T06:37:39.361Z,964.28
2016-10-31T06:38:39.378Z,964.26
2016-10-31T06:39:39.396Z,964.28
2016-10-31T06:40:39.413Z,964.31
2016-10-31T06:41:39.431Z,964.34
2016-10-31T06:42:39.449Z,964.33
2016-10-31T06:43:39.466Z,964.35
2016-10-31T06:44:39.484Z,964.37
2016-10-31T06:45:39.500Z,964.35
2016-10-31T06:46:39.519Z,964.35
2016-10-31T06:47:39.536Z,964.35
2016-10-31T06:48:39.554Z,964.37
2016-10-31T06:49:39.572Z,964.37
2016-10-31T06:50:39.588Z,964.36
2016-10-31T06:51:39.607Z,964.36
2016-10-31T06:52:39.626Z,964.35
2016-10-31T06:53:39.640Z,964.34
2016-10-31T06:54:39.659Z,964.38
2016-10-31T06:55:39.677Z,964.38
2016-10-31T06:56:39.693Z,964.36
2016-10-31T06:57:39.713Z,964.36
2016-10-31T06:58:39.730Z,964.34
2016-10-31T06:59:39.747Z,964.36
2016-10-31T07:00:39.765Z,964.37
2016-10-31T07:01:39.782Z,964.37
2016-10-31T07:02:39.800Z,964.33
2016-10-31T07:03:39.820Z,964.36
2016-10-31T07:04:39.836Z,964.33
2016-10-31T07:05:39.856Z,964.35
2016-10-31T07:06:39.872Z,964.35
2016-10-31T07:07:39.887Z,964.37
2016-10-31T07:08:39.905Z,964.31
2016-10-31T07:09:39.924Z,964.31
2016-10-31T07:10:39.942Z,964.3
2016-10-31T07:11:39.957Z,964.33
2016-10-31T07:12:39.976Z,964.34
2016-10-31T07:13:39.997Z,964.35
2016-10-31T07:14:40.012Z,964.3
2016-10-31T07:15:40.029Z,964.34
2016-10-31T07:16:40.047Z,964.33
2016-10-31T07:17:40.065Z,964.35
2016-10-31T07:18:40.082Z,964.36
2016-10-31T07:19:40.101Z,964.34
2016-10-31T07:20:40.122Z,964.39
2016-10-31T07:21:40.137Z,964.34
2016-10-31T07:22:40.155Z,964.35
2016-10-31T07:23:40.171Z,964.35
2016-10-31T07:24:40.189Z,964.35
2016-10-31T07:25:40.206Z,964.37
2016-10-31T07:26:40.223Z,964.4
2016-10-31T07:27:40.243Z,964.42
2016-10-31T07:28:40.279Z,964.38
2016-10-31T07:29:40.279Z,964.42
2016-10-31T07:30:40.295Z,964.45
2016-10-31T07:31:40.317Z,964.4
2016-10-31T07:32:40.334Z,964.43
2016-10-31T07:33:40.352Z,964.42
2016-10-31T07:34:40.370Z,964.4
2016-10-31T07:35:40.403Z,964.4
2016-10-31T07:36:40.409Z,964.36
2016-10-31T07:37:40.428Z,964.4
2016-10-31T07:38:40.447Z,964.42
2016-10-31T07:39:40.468Z,964.44
2016-10-31T07:40:40.487Z,964.44
2016-10-31T07:41:40.507Z,964.42
2016-10-31T07:42:40.528Z,964.39
2016-10-31T07:43:40.561Z,964.39
2016-10-31T07:44:40.569Z,964.41
2016-10-31T07:45:40.592Z,964.37
2016-10-31T07:46:40.614Z,964.42
2016-10-31T07:47:40.635Z,964.35
2016-10-31T07:48:40.658Z,964.36
2016-10-31T07:49:40.680Z,964.38
2016-10-31T07:50:40.704Z,964.39
2016-10-31T07:51:40.725Z,964.36
2016-10-31T07:52:40.748Z,964.39
2016-10-31T07:53:40.772Z,964.38
2016-10-31T07:54:40.796Z,964.39
2016-10-31T07:55:40.819Z,964.34
2016-10-31T07:56:40.843Z,964.39
2016-10-31T07:57:40.869Z,964.45
2016-10-31T07:58:40.901Z,964.46
2016-10-31T07:59:40.916Z,964.45
2016-10-31T08:00:40.941Z,964.48
2016-10-31T08:01:40.965Z,964.44
2016-10-31T08:02:40.988Z,964.42
2016-10-31T08:03:41.013Z,964.42
2016-10-31T08:04:41.037Z,964.4
2016-10-31T08:05:41.063Z,964.34
2016-10-31T08:06:41.089Z,964.39
2016-10-31T08:07:41.181Z,964.34
2016-10-31T08:08:41.138Z,964.37
2016-10-31T08:09:41.162Z,964.36
2016-10-31T08:10:41.186Z,964.33
2016-10-31T08:11:41.211Z,964.34
2016-10-31T08:12:41.237Z,964.35
2016-10-31T08:13:41.258Z,964.38
2016-10-31T08:14:41.287Z,964.37
2016-10-31T08:15:41.309Z,964.36
2016-10-31T08:16:41.333Z,964.33
2016-10-31T08:17:41.358Z,964.33
2016-10-31T08:18:41.382Z,964.32
2016-10-31T08:19:41.407Z,964.37
2016-10-31T08:20:41.432Z,964.34
2016-10-31T08:21:41.456Z,964.29
2016-10-31T08:22:41.492Z,964.33
2016-10-31T08:23:41.505Z,964.31
2016-10-31T08:24:41.529Z,964.36
2016-10-31T08:25:41.553Z,964.3
2016-10-31T08:26:41.578Z,964.3
2016-10-31T08:27:41.603Z,964.26
2016-10-31T08:28:41.626Z,964.25
2016-10-31T08:29:41.654Z,964.29
2016-10-31T08:30:41.677Z,964.27
2016-10-31T08:31:41.700Z,964.34
2016-10-31T08:32:41.725Z,964.3
2016-10-31T08:33:41.749Z,964.32
2016-10-31T08:34:41.775Z,964.31
2016-10-31T08:35:41.800Z,964.3
2016-10-31T08:36:41.824Z,964.26
2016-10-31T08:37:41.852Z,964.24
2016-10-31T08:38:41.875Z,964.25
2016-10-31T08:39:41.898Z,964.27
2016-10-31T08:40:41.923Z,964.24
2016-10-31T08:41:41.948Z,964.25
2016-10-31T08:42:41.973Z,964.2
2016-10-31T08:43:41.997Z,964.18
2016-10-31T08:44:42.022Z,964.21
2016-10-31T08:45:42.050Z,964.2
2016-10-31T08:46:42.072Z,964.22
2016-10-31T08:47:42.097Z,964.27
2016-10-31T08:48:42.122Z,964.25
2016-10-31T08:49:42.147Z,964.29
2016-10-31T08:50:42.172Z,964.29
2016-10-31T08:51:42.197Z,964.28
2016-10-31T08:52:42.222Z,964.24
2016-10-31T08:53:42.267Z,964.21
2016-10-31T08:54:42.271Z,964.23
2016-10-31T08:55:42.295Z,964.23
2016-10-31T08:56:42.321Z,964.21
2016-10-31T08:57:42.344Z,964.19
2016-10-31T08:58:42.369Z,964.21
2016-10-31T08:59:42.393Z,964.17
2016-10-31T09:00:42.418Z,964.16
2016-10-31T09:01:42.443Z,964.2
2016-10-31T09:02:42.466Z,964.15
2016-10-31T09:03:42.490Z,964.14
2016-10-31T09:04:42.514Z,964.16
2016-10-31T09:05:42.539Z,964.16
2016-10-31T09:06:42.581Z,964.2
2016-10-31T09:07:42.588Z,964.14
2016-10-31T09:08:42.613Z,964.21
2016-10-31T09:09:42.640Z,964.18
2016-10-31T09:10:42.659Z,964.14
2016-10-31T09:11:42.683Z,964.17
2016-10-31T09:12:42.709Z,964.21
2016-10-31T09:13:42.730Z,964.2
2016-10-31T09:14:42.754Z,964.24
2016-10-31T09:15:42.779Z,964.24
2016-10-31T09:16:42.803Z,964.19
2016-10-31T09:17:42.829Z,964.2
2016-10-31T09:18:42.851Z,964.16
2016-10-31T09:19:42.875Z,964.18
2016-10-31T09:20:42.898Z,964.21
2016-10-31T09:21:42.923Z,964.14
2016-10-31T09:22:42.948Z,964.13
2016-10-31T09:23:42.970Z,964.15
2016-10-31T09:24:42.998Z,964.14
2016-10-31T09:25:43.020Z,964.15
2016-10-31T09:26:43.043Z,964.11
2016-10-31T09:27:43.067Z,964.1
2016-10-31T09:28:43.091Z,964.1
2016-10-31T09:29:43.116Z,964.1
2016-10-31T09:30:43.138Z,964.11
2016-10-31T09:31:43.168Z,964.11
2016-10-31T09:32:43.199Z,964.13
2016-10-31T09:33:43.212Z,964.11
2016-10-31T09:34:43.234Z,964.11
2016-10-31T09:35:43.258Z,964.13
2016-10-31T09:36:43.283Z,964.18
2016-10-31T09:37:43.306Z,964.19
2016-10-31T09:38:43.330Z,964.14
2016-10-31T09:39:43.354Z,964.16
2016-10-31T09:40:43.378Z,964.14
2016-10-31T09:41:43.402Z,964.11
2016-10-31T09:42:43.424Z,964.11
2016-10-31T09:43:43.450Z,964.07
2016-10-31T09:44:43.474Z,964.06
2016-10-31T09:45:43.498Z,964.09
2016-10-31T09:46:43.523Z,964.1
2016-10-31T09:47:43.547Z,964.08
2016-10-31T09:48:43.571Z,964.08
2016-10-31T09:49:43.593Z,964.09
2016-10-31T09:50:43.619Z,964.06
2016-10-31T09:51:43.643Z,964.06
2016-10-31T09:52:43.666Z,964.12
2016-10-31T09:53:43.690Z,964.09
2016-10-31T09:54:43.716Z,964.06
2016-10-31T09:55:43.738Z,964.07
2016-10-31T09:56:43.765Z,964.07
2016-10-31T09:57:43.787Z,964.1
2016-10-31T09:58:43.809Z,964.11
2016-10-31T09:59:43.834Z,964.07
2016-10-31T10:00:43.858Z,964.11
2016-10-31T10:01:43.883Z,964.11
2016-10-31T10:02:43.905Z,964.05
2016-10-31T10:03:43.930Z,964.07
2016-10-31T10:04:43.956Z,964.04
2016-10-31T10:05:43.979Z,963.99
2016-10-31T10:06:44.003Z,964.03
2016-10-31T10:07:44.026Z,964.01
2016-10-31T10:08:44.050Z,963.98
2016-10-31T10:09:44.074Z,963.96
2016-10-31T10:10:44.097Z,963.96
2016-10-31T10:11:44.129Z,963.95
2016-10-31T10:12:44.146Z,963.93
2016-10-31T10:13:44.170Z,963.92
2016-10-31T10:14:44.193Z,963.9
2016-10-31T10:15:44.218Z,963.93
2016-10-31T10:16:44.241Z,963.9
2016-10-31T10:17:44.265Z,963.9
2016-10-31T10:18:44.291Z,963.9
2016-10-31T10:19:44.313Z,963.86
2016-10-31T10:20:44.339Z,963.88
2016-10-31T10:21:44.361Z,963.9
2016-10-31T10:22:44.386Z,963.83
2016-10-31T10:23:44.410Z,963.84
2016-10-31T10:24:44.434Z,963.88
2016-10-31T10:25:44.466Z,963.85
2016-10-31T10:26:44.482Z,963.79
2016-10-31T10:27:44.508Z,963.79
2016-10-31T10:28:44.530Z,963.81
2016-10-31T10:29:44.556Z,963.82
2016-10-31T10:30:44.578Z,963.8
2016-10-31T10:31:44.604Z,963.82
2016-10-31T10:32:44.627Z,963.86
2016-10-31T10:33:44.652Z,963.81
2016-10-31T10:34:44.677Z,963.77
2016-10-31T10:35:44.722Z,963.79
2016-10-31T10:36:44.723Z,963.77
2016-10-31T10:37:44.748Z,963.78
2016-10-31T10:38:44.773Z,963.78
2016-10-31T10:39:44.807Z,963.76
2016-10-31T10:40:44.823Z,963.73
2016-10-31T10:41:44.847Z,963.76
2016-10-31T10:42:44.871Z,963.74
2016-10-31T10:43:44.896Z,963.76
2016-10-31T10:44:44.920Z,963.76
2016-10-31T10:45:44.945Z,963.71
2016-10-31T10:46:44.970Z,963.68
2016-10-31T10:47:44.994Z,963.65
2016-10-31T10:48:45.019Z,963.67
2016-10-31T10:49:45.055Z,963.67
2016-10-31T10:50:45.068Z,963.66
2016-10-31T10:51:45.092Z,963.64
2016-10-31T10:52:45.118Z,963.64
2016-10-31T10:53:45.142Z,963.64
2016-10-31T10:54:45.166Z,963.65
2016-10-31T10:55:45.190Z,963.69
2016-10-31T10:56:45.216Z,963.66
2016-10-31T10:57:45.241Z,963.66
2016-10-31T10:58:45.279Z,963.61
2016-10-31T10:59:45.289Z,963.62
2016-10-31T11:00:45.315Z,963.6
2016-10-31T11:01:45.340Z,963.65
2016-10-31T11:02:45.364Z,963.66
2016-10-31T11:03:45.388Z,963.71
2016-10-31T11:04:45.414Z,963.68
2016-10-31T11:05:45.438Z,963.66
2016-10-31T11:06:45.463Z,963.65
2016-10-31T11:07:45.488Z,963.66
2016-10-31T11:08:45.514Z,963.61
2016-10-31T11:09:45.536Z,963.62
2016-10-31T11:10:45.563Z,963.62
2016-10-31T11:11:45.588Z,963.56
2016-10-31T11:12:45.611Z,963.52
2016-10-31T11:13:45.637Z,963.55
2016-10-31T11:14:45.670Z,963.56
2016-10-31T11:15:45.687Z,963.51
2016-10-31T11:16:45.712Z,963.51
2016-10-31T11:17:45.736Z,963.47
2016-10-31T11:18:45.762Z,963.43
2016-10-31T11:19:45.787Z,963.42
2016-10-31T11:20:45.812Z,963.42
2016-10-31T11:21:45.836Z,963.44
2016-10-31T11:22:45.873Z,963.38
2016-10-31T11:23:45.888Z,963.41
2016-10-31T11:24:45.912Z,963.44
2016-10-31T11:25:45.937Z,963.36
2016-10-31T11:26:45.961Z,963.4
2016-10-31T11:27:45.986Z,963.39
2016-10-31T11:28:46.012Z,963.41
2016-10-31T11:29:46.036Z,963.43
2016-10-31T11:30:46.062Z,963.4
2016-10-31T11:31:46.087Z,963.41
2016-10-31T11:32:46.110Z,963.42
2016-10-31T11:33:46.137Z,963.42
2016-10-31T11:34:46.165Z,963.44
2016-10-31T11:35:46.186Z,963.38
2016-10-31T11:36:46.210Z,963.39
2016-10-31T11:37:46.260Z,963.37
2016-10-31T11:38:46.355Z,963.34
2016-10-31T11:39:46.347Z,963.33
2016-10-31T11:40:46.309Z,963.34
2016-10-31T11:41:46.334Z,963.3
2016-10-31T11:42:46.358Z,963.28
2016-10-31T11:43:46.384Z,963.22
2016-10-31T11:44:46.419Z,963.2
2016-10-31T11:45:46.433Z,963.23
2016-10-31T11:46:46.457Z,963.21
2016-10-31T11:47:46.485Z,963.15
2016-10-31T11:48:46.521Z,963.17
2016-10-31T11:49:46.533Z,963.09
2016-10-31T11:50:46.557Z,963.11
2016-10-31T11:51:46.581Z,963.07
2016-10-31T11:52:46.610Z,963.08
2016-10-31T11:53:46.683Z,963.04
2016-10-31T11:54:46.657Z,963.03
2016-10-31T11:55:46.683Z,962.98
2016-10-31T11:56:46.706Z,962.99
2016-10-31T11:57:46.731Z,962.98
2016-10-31T11:58:46.757Z,963
2016-10-31T11:59:46.780Z,962.97
2016-10-31T12:00:46.805Z,962.97
2016-10-31T12:01:46.840Z,962.96
2016-10-31T12:02:46.854Z,962.93
2016-10-31T12:03:46.878Z,962.97
2016-10-31T12:04:46.905Z,962.93
2016-10-31T12:05:46.928Z,962.94
2016-10-31T12:06:46.954Z,962.95
2016-10-31T12:07:46.978Z,962.94
2016-10-31T12:08:47.002Z,962.91
2016-10-31T12:09:47.028Z,962.89
2016-10-31T12:10:47.052Z,962.88
2016-10-31T12:11:47.078Z,962.89
2016-10-31T12:12:47.102Z,962.91
2016-10-31T12:13:47.127Z,962.86
2016-10-31T12:14:47.151Z,962.89
2016-10-31T12:15:47.175Z,962.86
2016-10-31T12:16:47.200Z,962.85
2016-10-31T12:17:47.239Z,962.84
2016-10-31T12:18:47.250Z,962.84
2016-10-31T12:19:47.275Z,962.88
2016-10-31T12:20:47.299Z,962.88
2016-10-31T12:21:47.326Z,962.9
2016-10-31T12:22:47.348Z,962.84
2016-10-31T12:23:47.372Z,962.86
2016-10-31T12:24:47.398Z,962.84
2016-10-31T12:25:47.423Z,962.78
2016-10-31T12:26:47.448Z,962.82
2016-10-31T12:27:47.473Z,962.78
2016-10-31T12:28:47.498Z,962.78
2016-10-31T12:29:47.545Z,962.81
2016-10-31T12:30:47.547Z,962.77
2016-10-31T12:31:47.579Z,962.77